sensor_id;sensor_type;location;lat;lon;timestamp;temperature;humidity
9949;DHT22;5013;51.840;8.276;2023-08-31T00:01:39;13.20;92.60
9949;DHT22;5013;51.840;8.276;2023-08-31T00:04:04;13.20;94.90
9949;DHT22;5013;51.840;8.276;2023-08-31T00:06:33;13.10;99.90
9949;DHT22;5013;51.840;8.276;2023-08-31T00:08:59;13.10;99.90
9949;DHT22;5013;51.840;8.276;2023-08-31T00:11:24;13.10;99.90
9949;DHT22;5013;51.840;8.276;2023-08-31T00:13:51;13.00;85.80
9949;DHT22;5013;51.840;8.276;2023-08-31T00:16:17;13.00;62.00
9949;DHT22;5013;51.840;8.276;2023-08-31T00:18:43;12.90;99.90
9949;DHT22;5013;51.840;8.276;2023-08-31T00:21:10;12.90;99.90
9949;DHT22;5013;51.840;8.276;2023-08-31T00:23:36;12.90;99.90
9949;DHT22;5013;51.840;8.276;2023-08-31T00:26:02;12.80;99.90
9949;DHT22;5013;51.840;8.276;2023-08-31T00:28:28;12.80;99.90
9949;DHT22;5013;51.840;8.276;2023-08-31T00:30:54;12.80;99.90
9949;DHT22;5013;51.840;8.276;2023-08-31T00:33:19;12.80;99.90
9949;DHT22;5013;51.840;8.276;2023-08-31T00:35:45;12.80;99.90
9949;DHT22;5013;51.840;8.276;2023-08-31T00:38:14;12.70;99.90
9949;DHT22;5013;51.840;8.276;2023-08-31T00:40:41;12.70;99.90
9949;DHT22;5013;51.840;8.276;2023-08-31T00:43:09;12.80;99.90
9949;DHT22;5013;51.840;8.276;2023-08-31T00:45:36;12.80;99.90
9949;DHT22;5013;51.840;8.276;2023-08-31T00:48:03;12.70;99.90
9949;DHT22;5013;51.840;8.276;2023-08-31T00:50:28;12.80;99.90
9949;DHT22;5013;51.840;8.276;2023-08-31T00:52:55;12.70;99.90
9949;DHT22;5013;51.840;8.276;2023-08-31T00:55:20;12.80;99.90
9949;DHT22;5013;51.840;8.276;2023-08-31T00:57:46;12.90;99.90
9949;DHT22;5013;51.840;8.276;2023-08-31T01:00:12;12.90;99.90
9949;DHT22;5013;51.840;8.276;2023-08-31T01:11:12;13.10;99.90
9949;DHT22;5013;51.840;8.276;2023-08-31T01:13:46;13.10;99.90
9949;DHT22;5013;51.840;8.276;2023-08-31T01:16:16;13.10;99.90
9949;DHT22;5013;51.840;8.276;2023-08-31T01:18:43;13.10;99.90
9949;DHT22;5013;51.840;8.276;2023-08-31T01:21:25;13.10;99.90
9949;DHT22;5013;51.840;8.276;2023-08-31T01:23:53;13.10;99.90
9949;DHT22;5013;51.840;8.276;2023-08-31T01:26:20;13.20;99.90
9949;DHT22;5013;51.840;8.276;2023-08-31T01:28:49;13.20;99.90
9949;DHT22;5013;51.840;8.276;2023-08-31T01:31:16;13.20;99.90
9949;DHT22;5013;51.840;8.276;2023-08-31T01:33:42;13.20;99.90
9949;DHT22;5013;51.840;8.276;2023-08-31T01:36:23;13.20;99.90
9949;DHT22;5013;51.840;8.276;2023-08-31T01:39:06;13.30;99.90
9949;DHT22;5013;51.840;8.276;2023-08-31T01:41:37;13.30;99.90
9949;DHT22;5013;51.840;8.276;2023-08-31T01:44:07;13.20;96.60
9949;DHT22;5013;51.840;8.276;2023-08-31T01:46:34;13.30;70.40
9949;DHT22;5013;51.840;8.276;2023-08-31T01:49:00;13.30;99.90
9949;DHT22;5013;51.840;8.276;2023-08-31T01:51:26;13.30;99.90
9949;DHT22;5013;51.840;8.276;2023-08-31T01:53:52;13.40;99.90
9949;DHT22;5013;51.840;8.276;2023-08-31T01:56:17;13.30;90.90
9949;DHT22;5013;51.840;8.276;2023-08-31T01:58:43;13.30;77.20
9949;DHT22;5013;51.840;8.276;2023-08-31T02:01:08;13.30;33.00
9949;DHT22;5013;51.840;8.276;2023-08-31T02:03:34;13.30;51.70
9949;DHT22;5013;51.840;8.276;2023-08-31T02:05:59;13.30;99.90
9949;DHT22;5013;51.840;8.276;2023-08-31T02:08:25;13.30;99.90
9949;DHT22;5013;51.840;8.276;2023-08-31T02:10:50;13.30;99.90
9949;DHT22;5013;51.840;8.276;2023-08-31T02:13:16;13.30;99.90
9949;DHT22;5013;51.840;8.276;2023-08-31T02:15:42;13.30;93.60
9949;DHT22;5013;51.840;8.276;2023-08-31T02:18:08;13.30;54.70
9949;DHT22;5013;51.840;8.276;2023-08-31T02:20:34;13.30;94.20
9949;DHT22;5013;51.840;8.276;2023-08-31T02:22:59;13.30;42.20
9949;DHT22;5013;51.840;8.276;2023-08-31T02:25:25;13.20;25.30
9949;DHT22;5013;51.840;8.276;2023-08-31T02:27:53;13.20;25.40
9949;DHT22;5013;51.840;8.276;2023-08-31T02:30:19;13.20;88.00
9949;DHT22;5013;51.840;8.276;2023-08-31T02:32:45;13.20;23.60
9949;DHT22;5013;51.840;8.276;2023-08-31T02:35:10;13.20;11.80
9949;DHT22;5013;51.840;8.276;2023-08-31T02:37:37;13.30;1.00
9949;DHT22;5013;51.840;8.276;2023-08-31T02:40:03;13.30;8.60
9949;DHT22;5013;51.840;8.276;2023-08-31T02:42:29;13.20;1.00
9949;DHT22;5013;51.840;8.276;2023-08-31T02:44:55;13.20;53.30
9949;DHT22;5013;51.840;8.276;2023-08-31T02:47:21;13.20;95.90
9949;DHT22;5013;51.840;8.276;2023-08-31T02:49:47;13.20;99.90
9949;DHT22;5013;51.840;8.276;2023-08-31T02:52:13;13.20;99.90
9949;DHT22;5013;51.840;8.276;2023-08-31T02:54:39;13.20;99.90
9949;DHT22;5013;51.840;8.276;2023-08-31T02:57:04;13.10;99.90
9949;DHT22;5013;51.840;8.276;2023-08-31T02:59:30;13.10;99.90
9949;DHT22;5013;51.840;8.276;2023-08-31T03:01:55;13.10;99.90
9949;DHT22;5013;51.840;8.276;2023-08-31T03:04:21;13.10;99.90
9949;DHT22;5013;51.840;8.276;2023-08-31T03:06:47;13.00;99.90
9949;DHT22;5013;51.840;8.276;2023-08-31T03:09:12;13.00;99.90
9949;DHT22;5013;51.840;8.276;2023-08-31T03:11:38;13.00;99.90
9949;DHT22;5013;51.840;8.276;2023-08-31T03:14:04;13.00;99.90
9949;DHT22;5013;51.840;8.276;2023-08-31T03:16:30;12.90;99.90
9949;DHT22;5013;51.840;8.276;2023-08-31T03:18:55;12.90;99.90
9949;DHT22;5013;51.840;8.276;2023-08-31T03:21:21;12.80;99.90
9949;DHT22;5013;51.840;8.276;2023-08-31T03:23:46;12.80;99.90
9949;DHT22;5013;51.840;8.276;2023-08-31T03:26:12;12.80;99.90
9949;DHT22;5013;51.840;8.276;2023-08-31T03:28:38;12.70;99.90
9949;DHT22;5013;51.840;8.276;2023-08-31T03:31:05;12.70;99.90
9949;DHT22;5013;51.840;8.276;2023-08-31T03:33:31;12.70;99.90
9949;DHT22;5013;51.840;8.276;2023-08-31T03:36:01;12.70;99.90
9949;DHT22;5013;51.840;8.276;2023-08-31T03:38:26;12.70;99.90
9949;DHT22;5013;51.840;8.276;2023-08-31T03:40:53;12.60;99.90
9949;DHT22;5013;51.840;8.276;2023-08-31T03:43:20;12.60;99.90
9949;DHT22;5013;51.840;8.276;2023-08-31T03:45:45;12.60;99.90
9949;DHT22;5013;51.840;8.276;2023-08-31T03:48:11;12.50;99.90
9949;DHT22;5013;51.840;8.276;2023-08-31T03:50:37;12.50;99.90
9949;DHT22;5013;51.840;8.276;2023-08-31T03:53:02;12.40;99.90
9949;DHT22;5013;51.840;8.276;2023-08-31T03:55:28;12.40;99.90
9949;DHT22;5013;51.840;8.276;2023-08-31T03:57:54;12.40;99.90
9949;DHT22;5013;51.840;8.276;2023-08-31T04:00:20;12.40;99.90
9949;DHT22;5013;51.840;8.276;2023-08-31T04:02:45;12.40;99.90
9949;DHT22;5013;51.840;8.276;2023-08-31T04:05:11;12.40;99.90
9949;DHT22;5013;51.840;8.276;2023-08-31T04:07:37;12.30;99.90
9949;DHT22;5013;51.840;8.276;2023-08-31T04:10:03;12.30;99.90
9949;DHT22;5013;51.840;8.276;2023-08-31T04:12:29;12.30;99.90
9949;DHT22;5013;51.840;8.276;2023-08-31T04:14:56;12.30;99.90
9949;DHT22;5013;51.840;8.276;2023-08-31T04:17:21;12.30;99.90
9949;DHT22;5013;51.840;8.276;2023-08-31T04:19:47;12.20;99.90
9949;DHT22;5013;51.840;8.276;2023-08-31T04:22:12;12.20;99.90
9949;DHT22;5013;51.840;8.276;2023-08-31T04:24:38;12.30;99.90
9949;DHT22;5013;51.840;8.276;2023-08-31T04:27:04;12.20;99.90
9949;DHT22;5013;51.840;8.276;2023-08-31T04:29:30;12.20;99.90
9949;DHT22;5013;51.840;8.276;2023-08-31T04:31:55;12.30;99.90
9949;DHT22;5013;51.840;8.276;2023-08-31T04:34:21;12.30;99.90
9949;DHT22;5013;51.840;8.276;2023-08-31T04:36:46;12.30;99.90
9949;DHT22;5013;51.840;8.276;2023-08-31T04:39:12;12.30;99.90
9949;DHT22;5013;51.840;8.276;2023-08-31T04:41:37;12.30;99.90
9949;DHT22;5013;51.840;8.276;2023-08-31T04:44:03;12.30;99.90
9949;DHT22;5013;51.840;8.276;2023-08-31T04:46:28;12.30;99.90
9949;DHT22;5013;51.840;8.276;2023-08-31T04:48:54;12.30;99.90
9949;DHT22;5013;51.840;8.276;2023-08-31T04:51:34;12.30;99.90
9949;DHT22;5013;51.840;8.276;2023-08-31T04:54:00;12.30;99.90
9949;DHT22;5013;51.840;8.276;2023-08-31T04:56:30;12.20;99.90
9949;DHT22;5013;51.840;8.276;2023-08-31T04:58:56;12.30;99.90
9949;DHT22;5013;51.840;8.276;2023-08-31T05:01:22;12.30;99.90
9949;DHT22;5013;51.840;8.276;2023-08-31T05:03:47;12.20;99.90
9949;DHT22;5013;51.840;8.276;2023-08-31T05:06:13;12.30;99.90
9949;DHT22;5013;51.840;8.276;2023-08-31T05:08:38;12.30;99.90
9949;DHT22;5013;51.840;8.276;2023-08-31T05:11:04;12.40;99.90
9949;DHT22;5013;51.840;8.276;2023-08-31T05:13:30;12.40;78.10
9949;DHT22;5013;51.840;8.276;2023-08-31T05:15:55;12.40;72.30
9949;DHT22;5013;51.840;8.276;2023-08-31T05:18:21;12.40;47.00
9949;DHT22;5013;51.840;8.276;2023-08-31T05:20:46;12.50;99.90
9949;DHT22;5013;51.840;8.276;2023-08-31T05:23:14;12.60;73.00
9949;DHT22;5013;51.840;8.276;2023-08-31T05:25:43;12.70;1.00
9949;DHT22;5013;51.840;8.276;2023-08-31T05:28:09;12.70;1.00
9949;DHT22;5013;51.840;8.276;2023-08-31T05:30:34;12.70;1.00
9949;DHT22;5013;51.840;8.276;2023-08-31T05:33:00;12.80;20.00
9949;DHT22;5013;51.840;8.276;2023-08-31T05:35:26;12.80;1.00
9949;DHT22;5013;51.840;8.276;2023-08-31T05:37:52;12.80;1.00
9949;DHT22;5013;51.840;8.276;2023-08-31T05:40:17;12.90;1.00
9949;DHT22;5013;51.840;8.276;2023-08-31T05:42:43;12.90;1.00
9949;DHT22;5013;51.840;8.276;2023-08-31T05:45:09;12.90;1.00
9949;DHT22;5013;51.840;8.276;2023-08-31T05:47:35;13.00;1.00
9949;DHT22;5013;51.840;8.276;2023-08-31T05:50:01;13.20;1.00
9949;DHT22;5013;51.840;8.276;2023-08-31T05:52:27;13.40;1.00
9949;DHT22;5013;51.840;8.276;2023-08-31T05:54:52;13.50;1.00
9949;DHT22;5013;51.840;8.276;2023-08-31T05:57:19;13.50;99.90
9949;DHT22;5013;51.840;8.276;2023-08-31T05:59:46;13.50;99.90
9949;DHT22;5013;51.840;8.276;2023-08-31T06:02:12;13.50;99.90
9949;DHT22;5013;51.840;8.276;2023-08-31T06:04:38;13.40;1.00
9949;DHT22;5013;51.840;8.276;2023-08-31T06:07:03;13.40;1.00
9949;DHT22;5013;51.840;8.276;2023-08-31T06:09:29;13.40;1.00
9949;DHT22;5013;51.840;8.276;2023-08-31T06:11:54;13.40;1.00
9949;DHT22;5013;51.840;8.276;2023-08-31T06:14:20;13.40;1.00
9949;DHT22;5013;51.840;8.276;2023-08-31T06:16:45;13.40;1.00
9949;DHT22;5013;51.840;8.276;2023-08-31T06:19:11;13.40;1.00
9949;DHT22;5013;51.840;8.276;2023-08-31T06:21:40;13.50;1.00
9949;DHT22;5013;51.840;8.276;2023-08-31T06:24:07;13.50;1.00
9949;DHT22;5013;51.840;8.276;2023-08-31T06:26:35;13.90;99.90
9949;DHT22;5013;51.840;8.276;2023-08-31T06:29:01;14.00;1.00
9949;DHT22;5013;51.840;8.276;2023-08-31T06:31:29;14.20;1.00
9949;DHT22;5013;51.840;8.276;2023-08-31T06:33:54;14.50;26.70
9949;DHT22;5013;51.840;8.276;2023-08-31T06:36:20;14.40;1.00
9949;DHT22;5013;51.840;8.276;2023-08-31T06:38:46;14.20;99.90
9949;DHT22;5013;51.840;8.276;2023-08-31T06:41:11;14.00;1.00
9949;DHT22;5013;51.840;8.276;2023-08-31T06:43:37;13.90;1.00
9949;DHT22;5013;51.840;8.276;2023-08-31T06:46:02;13.90;1.00
9949;DHT22;5013;51.840;8.276;2023-08-31T06:48:28;14.00;1.00
9949;DHT22;5013;51.840;8.276;2023-08-31T06:50:54;14.20;1.00
9949;DHT22;5013;51.840;8.276;2023-08-31T06:53:20;14.60;1.00
9949;DHT22;5013;51.840;8.276;2023-08-31T06:55:45;14.80;99.90
9949;DHT22;5013;51.840;8.276;2023-08-31T06:58:11;15.00;1.00
9949;DHT22;5013;51.840;8.276;2023-08-31T07:00:36;15.40;1.00
9949;DHT22;5013;51.840;8.276;2023-08-31T07:03:02;15.60;99.90
9949;DHT22;5013;51.840;8.276;2023-08-31T07:05:33;15.50;1.00
9949;DHT22;5013;51.840;8.276;2023-08-31T07:08:00;15.30;1.00
9949;DHT22;5013;51.840;8.276;2023-08-31T07:10:27;15.20;93.50
9949;DHT22;5013;51.840;8.276;2023-08-31T07:12:53;15.10;99.90
9949;DHT22;5013;51.840;8.276;2023-08-31T07:15:18;15.10;99.90
9949;DHT22;5013;51.840;8.276;2023-08-31T07:17:44;15.10;99.90
9949;DHT22;5013;51.840;8.276;2023-08-31T07:20:11;15.20;1.00
9949;DHT22;5013;51.840;8.276;2023-08-31T07:22:37;15.30;99.90
9949;DHT22;5013;51.840;8.276;2023-08-31T07:25:04;15.20;1.00
9949;DHT22;5013;51.840;8.276;2023-08-31T07:27:29;15.00;99.90
9949;DHT22;5013;51.840;8.276;2023-08-31T07:29:55;15.00;1.00
9949;DHT22;5013;51.840;8.276;2023-08-31T07:32:21;15.10;1.00
9949;DHT22;5013;51.840;8.276;2023-08-31T07:34:47;15.50;1.00
9949;DHT22;5013;51.840;8.276;2023-08-31T07:37:13;15.40;1.00
9949;DHT22;5013;51.840;8.276;2023-08-31T07:39:38;15.50;1.00
9949;DHT22;5013;51.840;8.276;2023-08-31T07:42:05;15.50;37.40
9949;DHT22;5013;51.840;8.276;2023-08-31T07:44:31;15.50;1.00
9949;DHT22;5013;51.840;8.276;2023-08-31T07:46:56;15.40;99.90
9949;DHT22;5013;51.840;8.276;2023-08-31T07:49:22;15.40;99.90
9949;DHT22;5013;51.840;8.276;2023-08-31T07:51:48;15.30;99.90
9949;DHT22;5013;51.840;8.276;2023-08-31T07:54:21;15.40;1.00
9949;DHT22;5013;51.840;8.276;2023-08-31T07:56:46;15.40;99.90
9949;DHT22;5013;51.840;8.276;2023-08-31T07:59:12;15.40;1.00
9949;DHT22;5013;51.840;8.276;2023-08-31T08:01:37;15.50;99.90
9949;DHT22;5013;51.840;8.276;2023-08-31T08:04:03;15.70;99.90
9949;DHT22;5013;51.840;8.276;2023-08-31T08:06:29;15.90;1.00
9949;DHT22;5013;51.840;8.276;2023-08-31T08:08:54;16.20;1.00
9949;DHT22;5013;51.840;8.276;2023-08-31T08:11:22;16.30;1.00
9949;DHT22;5013;51.840;8.276;2023-08-31T08:13:48;16.30;99.90
9949;DHT22;5013;51.840;8.276;2023-08-31T08:16:14;16.30;1.00
9949;DHT22;5013;51.840;8.276;2023-08-31T08:18:40;16.30;99.90
9949;DHT22;5013;51.840;8.276;2023-08-31T08:21:06;16.40;1.00
9949;DHT22;5013;51.840;8.276;2023-08-31T08:23:32;16.40;99.90
9949;DHT22;5013;51.840;8.276;2023-08-31T08:25:58;16.40;1.00
9949;DHT22;5013;51.840;8.276;2023-08-31T08:28:25;16.40;99.90
9949;DHT22;5013;51.840;8.276;2023-08-31T08:30:51;16.30;1.00
9949;DHT22;5013;51.840;8.276;2023-08-31T08:33:16;16.40;98.10
9949;DHT22;5013;51.840;8.276;2023-08-31T08:35:42;16.20;99.90
9949;DHT22;5013;51.840;8.276;2023-08-31T08:38:08;16.10;1.00
9949;DHT22;5013;51.840;8.276;2023-08-31T08:40:34;16.10;1.00
9949;DHT22;5013;51.840;8.276;2023-08-31T08:43:01;16.10;99.90
9949;DHT22;5013;51.840;8.276;2023-08-31T08:45:30;16.10;99.90
9949;DHT22;5013;51.840;8.276;2023-08-31T08:48:03;16.20;10.90
9949;DHT22;5013;51.840;8.276;2023-08-31T08:50:31;16.30;99.90
9949;DHT22;5013;51.840;8.276;2023-08-31T08:52:59;16.20;99.90
9949;DHT22;5013;51.840;8.276;2023-08-31T08:55:25;16.10;99.90
9949;DHT22;5013;51.840;8.276;2023-08-31T08:57:51;16.30;1.00
9949;DHT22;5013;51.840;8.276;2023-08-31T09:00:16;16.30;1.00
9949;DHT22;5013;51.840;8.276;2023-08-31T09:02:42;16.20;1.00
9949;DHT22;5013;51.840;8.276;2023-08-31T09:05:08;16.20;99.90
9949;DHT22;5013;51.840;8.276;2023-08-31T09:07:37;16.30;1.00
9949;DHT22;5013;51.840;8.276;2023-08-31T09:10:04;16.60;99.90
9949;DHT22;5013;51.840;8.276;2023-08-31T09:12:30;16.70;99.90
9949;DHT22;5013;51.840;8.276;2023-08-31T09:15:02;16.80;1.00
9949;DHT22;5013;51.840;8.276;2023-08-31T09:17:58;16.70;99.90
9949;DHT22;5013;51.840;8.276;2023-08-31T09:20:24;16.70;99.90
9949;DHT22;5013;51.840;8.276;2023-08-31T09:22:50;16.70;99.90
9949;DHT22;5013;51.840;8.276;2023-08-31T09:25:17;16.80;99.90
9949;DHT22;5013;51.840;8.276;2023-08-31T09:27:45;17.00;38.50
9949;DHT22;5013;51.840;8.276;2023-08-31T09:30:11;17.10;1.00
9949;DHT22;5013;51.840;8.276;2023-08-31T09:32:36;17.50;1.00
9949;DHT22;5013;51.840;8.276;2023-08-31T09:35:03;17.60;99.90
9949;DHT22;5013;51.840;8.276;2023-08-31T09:37:29;17.70;86.60
9949;DHT22;5013;51.840;8.276;2023-08-31T09:39:54;17.80;99.90
9949;DHT22;5013;51.840;8.276;2023-08-31T09:42:20;17.80;1.00
9949;DHT22;5013;51.840;8.276;2023-08-31T09:44:49;18.00;1.00
9949;DHT22;5013;51.840;8.276;2023-08-31T09:47:15;18.00;1.00
9949;DHT22;5013;51.840;8.276;2023-08-31T09:49:42;18.10;99.90
9949;DHT22;5013;51.840;8.276;2023-08-31T09:52:09;18.00;1.00
9949;DHT22;5013;51.840;8.276;2023-08-31T09:54:35;18.00;1.00
9949;DHT22;5013;51.840;8.276;2023-08-31T09:57:02;18.10;1.00
9949;DHT22;5013;51.840;8.276;2023-08-31T09:59:28;18.00;99.90
9949;DHT22;5013;51.840;8.276;2023-08-31T10:01:54;17.90;99.90
9949;DHT22;5013;51.840;8.276;2023-08-31T10:04:22;18.10;1.00
9949;DHT22;5013;51.840;8.276;2023-08-31T10:06:49;18.10;1.00
9949;DHT22;5013;51.840;8.276;2023-08-31T10:09:16;18.10;99.90
9949;DHT22;5013;51.840;8.276;2023-08-31T10:11:42;17.90;99.90
9949;DHT22;5013;51.840;8.276;2023-08-31T10:14:09;17.90;1.00
9949;DHT22;5013;51.840;8.276;2023-08-31T10:16:38;17.70;99.90
9949;DHT22;5013;51.840;8.276;2023-08-31T10:19:04;17.50;1.00
9949;DHT22;5013;51.840;8.276;2023-08-31T10:21:30;17.50;1.00
9949;DHT22;5013;51.840;8.276;2023-08-31T10:23:55;17.80;99.90
9949;DHT22;5013;51.840;8.276;2023-08-31T10:26:29;18.10;1.00
9949;DHT22;5013;51.840;8.276;2023-08-31T10:28:55;18.30;1.00
9949;DHT22;5013;51.840;8.276;2023-08-31T10:31:22;18.30;1.00
9949;DHT22;5013;51.840;8.276;2023-08-31T10:34:08;18.40;51.80
9949;DHT22;5013;51.840;8.276;2023-08-31T10:36:40;18.50;1.00
9949;DHT22;5013;51.840;8.276;2023-08-31T10:39:16;18.70;1.00
9949;DHT22;5013;51.840;8.276;2023-08-31T10:41:55;18.70;1.00
9949;DHT22;5013;51.840;8.276;2023-08-31T10:44:25;18.90;1.00
9949;DHT22;5013;51.840;8.276;2023-08-31T10:46:51;19.00;1.00
9949;DHT22;5013;51.840;8.276;2023-08-31T10:49:21;19.10;99.90
9949;DHT22;5013;51.840;8.276;2023-08-31T10:51:58;19.20;99.90
9949;DHT22;5013;51.840;8.276;2023-08-31T10:54:40;19.50;99.90
9949;DHT22;5013;51.840;8.276;2023-08-31T10:57:06;19.40;99.90
9949;DHT22;5013;51.840;8.276;2023-08-31T11:02:37;18.60;99.90
9949;DHT22;5013;51.840;8.276;2023-08-31T11:05:16;18.90;99.90
9949;DHT22;5013;51.840;8.276;2023-08-31T11:07:43;19.50;99.90
9949;DHT22;5013;51.840;8.276;2023-08-31T11:10:15;19.70;99.90
9949;DHT22;5013;51.840;8.276;2023-08-31T11:12:53;20.10;99.90
9949;DHT22;5013;51.840;8.276;2023-08-31T11:15:20;20.20;99.90
9949;DHT22;5013;51.840;8.276;2023-08-31T11:17:48;20.00;24.80
9949;DHT22;5013;51.840;8.276;2023-08-31T11:20:19;19.90;16.50
9949;DHT22;5013;51.840;8.276;2023-08-31T11:22:51;20.00;67.60
9949;DHT22;5013;51.840;8.276;2023-08-31T11:25:20;19.80;20.50
9949;DHT22;5013;51.840;8.276;2023-08-31T11:27:57;19.40;11.90
9949;DHT22;5013;51.840;8.276;2023-08-31T11:30:25;19.30;57.60
9949;DHT22;5013;51.840;8.276;2023-08-31T11:32:51;19.40;99.90
9949;DHT22;5013;51.840;8.276;2023-08-31T11:35:23;19.50;99.90
9949;DHT22;5013;51.840;8.276;2023-08-31T11:37:51;19.70;99.90
9949;DHT22;5013;51.840;8.276;2023-08-31T11:40:17;20.10;65.00
9949;DHT22;5013;51.840;8.276;2023-08-31T11:42:44;20.10;1.00
9949;DHT22;5013;51.840;8.276;2023-08-31T11:45:11;20.00;1.00
9949;DHT22;5013;51.840;8.276;2023-08-31T11:47:38;19.90;1.00
9949;DHT22;5013;51.840;8.276;2023-08-31T11:50:05;20.00;1.00
9949;DHT22;5013;51.840;8.276;2023-08-31T11:52:32;20.00;1.00
9949;DHT22;5013;51.840;8.276;2023-08-31T11:54:57;19.90;1.00
9949;DHT22;5013;51.840;8.276;2023-08-31T11:57:27;19.70;1.00
9949;DHT22;5013;51.840;8.276;2023-08-31T11:59:54;19.60;1.00
9949;DHT22;5013;51.840;8.276;2023-08-31T12:02:21;19.50;1.00
9949;DHT22;5013;51.840;8.276;2023-08-31T12:04:47;19.50;1.00
9949;DHT22;5013;51.840;8.276;2023-08-31T12:07:17;19.90;1.00
9949;DHT22;5013;51.840;8.276;2023-08-31T12:09:44;20.30;1.00
9949;DHT22;5013;51.840;8.276;2023-08-31T12:12:10;20.20;1.00
9949;DHT22;5013;51.840;8.276;2023-08-31T12:14:37;19.80;1.00
9949;DHT22;5013;51.840;8.276;2023-08-31T12:17:06;19.70;1.00
9949;DHT22;5013;51.840;8.276;2023-08-31T12:19:35;20.00;15.80
9949;DHT22;5013;51.840;8.276;2023-08-31T12:22:01;20.20;1.00
9949;DHT22;5013;51.840;8.276;2023-08-31T12:24:27;20.20;1.00
9949;DHT22;5013;51.840;8.276;2023-08-31T12:26:53;20.00;1.00
9949;DHT22;5013;51.840;8.276;2023-08-31T12:29:22;20.00;1.00
9949;DHT22;5013;51.840;8.276;2023-08-31T12:31:49;20.10;1.00
9949;DHT22;5013;51.840;8.276;2023-08-31T12:34:15;20.40;1.00
9949;DHT22;5013;51.840;8.276;2023-08-31T12:36:40;20.20;1.00
9949;DHT22;5013;51.840;8.276;2023-08-31T12:39:07;20.10;1.00
9949;DHT22;5013;51.840;8.276;2023-08-31T12:41:35;19.90;1.00
9949;DHT22;5013;51.840;8.276;2023-08-31T12:44:05;19.90;1.00
9949;DHT22;5013;51.840;8.276;2023-08-31T12:46:31;19.90;1.00
9949;DHT22;5013;51.840;8.276;2023-08-31T12:48:57;20.10;1.00
9949;DHT22;5013;51.840;8.276;2023-08-31T12:51:22;20.20;1.00
9949;DHT22;5013;51.840;8.276;2023-08-31T12:53:48;20.20;1.00
9949;DHT22;5013;51.840;8.276;2023-08-31T12:56:14;20.30;1.00
9949;DHT22;5013;51.840;8.276;2023-08-31T12:58:48;20.10;1.00
9949;DHT22;5013;51.840;8.276;2023-08-31T13:01:13;20.10;4.60
9949;DHT22;5013;51.840;8.276;2023-08-31T13:03:39;20.20;1.00
9949;DHT22;5013;51.840;8.276;2023-08-31T13:06:05;20.30;1.00
9949;DHT22;5013;51.840;8.276;2023-08-31T13:08:30;20.40;1.00
9949;DHT22;5013;51.840;8.276;2023-08-31T13:10:56;20.40;1.00
9949;DHT22;5013;51.840;8.276;2023-08-31T13:13:25;20.40;1.00
9949;DHT22;5013;51.840;8.276;2023-08-31T13:15:53;20.30;1.00
9949;DHT22;5013;51.840;8.276;2023-08-31T13:18:19;20.00;92.30
9949;DHT22;5013;51.840;8.276;2023-08-31T13:20:52;19.90;99.90
9949;DHT22;5013;51.840;8.276;2023-08-31T13:23:18;20.10;1.00
9949;DHT22;5013;51.840;8.276;2023-08-31T13:25:44;20.60;99.90
9949;DHT22;5013;51.840;8.276;2023-08-31T13:28:10;20.90;98.60
9949;DHT22;5013;51.840;8.276;2023-08-31T13:30:35;21.00;99.90
9949;DHT22;5013;51.840;8.276;2023-08-31T13:33:01;21.00;93.90
9949;DHT22;5013;51.840;8.276;2023-08-31T13:35:27;21.10;84.70
9949;DHT22;5013;51.840;8.276;2023-08-31T13:37:52;20.80;1.00
9949;DHT22;5013;51.840;8.276;2023-08-31T13:40:18;20.10;9.50
9949;DHT22;5013;51.840;8.276;2023-08-31T13:42:54;19.60;99.90
9949;DHT22;5013;51.840;8.276;2023-08-31T13:45:22;19.20;3.80
9949;DHT22;5013;51.840;8.276;2023-08-31T13:47:48;18.50;84.80
9949;DHT22;5013;51.840;8.276;2023-08-31T13:50:17;17.80;99.90
9949;DHT22;5013;51.840;8.276;2023-08-31T13:52:43;17.40;1.00
9949;DHT22;5013;51.840;8.276;2023-08-31T13:55:09;16.80;1.00
9949;DHT22;5013;51.840;8.276;2023-08-31T13:57:34;16.50;1.00
9949;DHT22;5013;51.840;8.276;2023-08-31T14:00:00;16.30;99.90
9949;DHT22;5013;51.840;8.276;2023-08-31T14:02:26;16.30;1.00
9949;DHT22;5013;51.840;8.276;2023-08-31T14:04:53;16.20;1.00
9949;DHT22;5013;51.840;8.276;2023-08-31T14:07:19;16.30;99.90
9949;DHT22;5013;51.840;8.276;2023-08-31T14:09:44;16.50;1.00
9949;DHT22;5013;51.840;8.276;2023-08-31T14:12:10;16.70;99.90
9949;DHT22;5013;51.840;8.276;2023-08-31T14:14:36;16.80;99.90
9949;DHT22;5013;51.840;8.276;2023-08-31T14:17:01;16.90;1.00
9949;DHT22;5013;51.840;8.276;2023-08-31T14:19:29;17.10;1.00
9949;DHT22;5013;51.840;8.276;2023-08-31T14:21:54;17.30;95.30
9949;DHT22;5013;51.840;8.276;2023-08-31T14:24:20;17.30;99.90
9949;DHT22;5013;51.840;8.276;2023-08-31T14:26:45;17.50;99.90
9949;DHT22;5013;51.840;8.276;2023-08-31T14:29:11;17.40;1.00
9949;DHT22;5013;51.840;8.276;2023-08-31T14:31:37;17.50;99.90
9949;DHT22;5013;51.840;8.276;2023-08-31T14:34:03;17.50;99.90
9949;DHT22;5013;51.840;8.276;2023-08-31T14:36:29;17.60;99.90
9949;DHT22;5013;51.840;8.276;2023-08-31T14:38:54;17.80;99.90
9949;DHT22;5013;51.840;8.276;2023-08-31T14:41:20;18.00;1.00
9949;DHT22;5013;51.840;8.276;2023-08-31T14:43:45;18.30;99.90
9949;DHT22;5013;51.840;8.276;2023-08-31T14:46:11;18.20;99.90
9949;DHT22;5013;51.840;8.276;2023-08-31T14:48:36;17.80;80.60
9949;DHT22;5013;51.840;8.276;2023-08-31T14:51:02;17.50;1.00
9949;DHT22;5013;51.840;8.276;2023-08-31T14:53:28;17.50;1.00
9949;DHT22;5013;51.840;8.276;2023-08-31T14:55:54;17.60;1.00
9949;DHT22;5013;51.840;8.276;2023-08-31T14:58:20;17.80;99.90
9949;DHT22;5013;51.840;8.276;2023-08-31T15:00:46;17.70;27.90
9949;DHT22;5013;51.840;8.276;2023-08-31T15:03:11;17.70;1.00
9949;DHT22;5013;51.840;8.276;2023-08-31T15:05:38;17.80;99.90
9949;DHT22;5013;51.840;8.276;2023-08-31T15:08:06;17.90;99.90
9949;DHT22;5013;51.840;8.276;2023-08-31T15:10:32;17.90;99.90
9949;DHT22;5013;51.840;8.276;2023-08-31T15:12:58;18.00;37.30
9949;DHT22;5013;51.840;8.276;2023-08-31T15:15:27;18.00;1.00
9949;DHT22;5013;51.840;8.276;2023-08-31T15:17:53;18.00;1.00
9949;DHT22;5013;51.840;8.276;2023-08-31T15:20:19;18.10;57.30
9949;DHT22;5013;51.840;8.276;2023-08-31T15:22:45;18.30;1.00
9949;DHT22;5013;51.840;8.276;2023-08-31T15:25:10;18.50;1.00
9949;DHT22;5013;51.840;8.276;2023-08-31T15:27:36;18.70;1.00
9949;DHT22;5013;51.840;8.276;2023-08-31T15:30:03;18.90;1.00
9949;DHT22;5013;51.840;8.276;2023-08-31T15:32:29;18.80;1.00
9949;DHT22;5013;51.840;8.276;2023-08-31T15:34:54;18.80;1.00
9949;DHT22;5013;51.840;8.276;2023-08-31T15:37:20;18.70;1.00
9949;DHT22;5013;51.840;8.276;2023-08-31T15:39:46;18.60;23.70
9949;DHT22;5013;51.840;8.276;2023-08-31T15:42:11;18.50;99.90
9949;DHT22;5013;51.840;8.276;2023-08-31T15:44:40;18.50;1.00
9949;DHT22;5013;51.840;8.276;2023-08-31T15:47:06;18.70;1.00
9949;DHT22;5013;51.840;8.276;2023-08-31T15:49:32;18.70;1.00
9949;DHT22;5013;51.840;8.276;2023-08-31T15:51:57;18.80;1.00
9949;DHT22;5013;51.840;8.276;2023-08-31T15:54:23;18.70;1.00
9949;DHT22;5013;51.840;8.276;2023-08-31T15:56:48;18.70;99.90
9949;DHT22;5013;51.840;8.276;2023-08-31T15:59:14;18.70;99.90
9949;DHT22;5013;51.840;8.276;2023-08-31T16:01:40;18.70;99.90
9949;DHT22;5013;51.840;8.276;2023-08-31T16:04:08;18.60;99.90
9949;DHT22;5013;51.840;8.276;2023-08-31T16:06:34;18.40;1.00
9949;DHT22;5013;51.840;8.276;2023-08-31T16:09:02;18.40;92.70
9949;DHT22;5013;51.840;8.276;2023-08-31T16:11:30;18.50;1.00
9949;DHT22;5013;51.840;8.276;2023-08-31T16:13:56;18.30;99.90
9949;DHT22;5013;51.840;8.276;2023-08-31T16:16:24;18.30;99.90